Al Najaf International Airport

Airport
ICAO code: 
ORNI
IATA Code: 
NJF
Summary
ICAO Region: 
MID
Territory: 
Location: 
Najaf,
Serving: 
Najaf
Elevation: 
0 ft
Coordinates: 
Aerial View: 
31° 59' 23.402" N, 44° 24' 15.606" E
Metar
Observation
ORNI 080300Z 14005KT 3000 HZ FEW040 11/06 Q1019 NOSIG
Station
Al Najaf
Date/Time
2021-12-08 03:00:00
Wind direction
140°
Wind speed
05 kts
Lowest cloud amount
few clouds
Temperature
11°C
Dew point
6°C
Humidity
71%
QNH
1019 hPa
Weather condition
n/a

Description

Al Najaf International Airport is located east of the city of Najaf.

Climatology

Hot Desert Climate (Köppen climate classification BWh) - Hot desert climates are typically found in the subtropics where there is unbroken sunshine for the whole year due to the stable descending air and high pressure, little or no precipitation. Maximum temperatures of 40°C to 45°C are not uncommon, particularly during the warmer months of the year. During colder periods of the year, night-time temperatures can drop to freezing or below due to the exceptional radiation loss under the clear skies. However, very rarely do temperatures drop far below freezing.

Airport map: 
Aerial View: 

SKYbrary Partners:

Safety knowledge contributed by: